Time;durP1;ratioP1;P1;durP2;ratioP2;P2;SDS_P1;SDS_P2;PMS_P1;PMS_P2;Temp;Humidity;BMP_temperature;BMP_pressure;BME280_temperature;BME280_humidity;BME280_pressure;Samples;Min_cycle;Max_cycle;Signal;HPM_P1;HPM_P2
2023/08/31 00:02:06;;;;;;;4.45;2.67;;;;;;;18.28;97.16;92600.03;5011910;28;20046;-77
2023/08/31 00:04:32;;;;;;;4.30;2.25;;;;;;;18.38;97.27;92609.56;5017701;28;20053;-77
2023/08/31 00:07:00;;;;;;;4.43;1.83;;;;;;;18.33;97.07;92599.19;5025686;28;20053;-77
2023/08/31 00:09:27;;;;;;;3.45;1.85;;;;;;;18.30;97.50;92600.53;5016479;28;20578;-77
2023/08/31 00:11:56;;;;;;;6.30;2.05;;;;;;;18.39;97.06;92612.94;5009303;28;20503;-77
2023/08/31 00:14:23;;;;;;;4.45;2.30;;;;;;;18.31;97.34;92606.50;5009686;28;20057;-77
2023/08/31 00:16:50;;;;;;;5.88;3.22;;;;;;;18.22;97.88;92593.31;5010695;28;20573;-78
2023/08/31 00:19:17;;;;;;;3.63;2.00;;;;;;;18.29;98.33;92606.78;5012189;28;20049;-80
2023/08/31 00:21:44;;;;;;;3.97;2.20;;;;;;;18.24;97.97;92601.63;5010881;28;20050;-80
2023/08/31 00:24:11;;;;;;;3.50;1.85;;;;;;;18.27;97.73;92613.28;5013637;28;20092;-79
2023/08/31 00:26:41;;;;;;;4.20;2.03;;;;;;;18.07;98.15;92593.44;5009335;28;20436;-79
2023/08/31 00:29:10;;;;;;;3.55;1.70;;;;;;;18.15;98.45;92624.06;5012725;28;20049;-78
2023/08/31 00:31:37;;;;;;;3.67;1.98;;;;;;;18.13;98.65;92626.13;5009509;28;20133;-79
2023/08/31 00:34:04;;;;;;;4.57;2.15;;;;;;;17.95;99.17;92599.72;5009339;28;20053;-79
2023/08/31 00:36:32;;;;;;;4.30;2.00;;;;;;;18.06;99.28;92621.25;5013267;28;20112;-79
2023/08/31 00:38:58;;;;;;;5.43;2.17;;;;;;;18.09;100.00;92630.34;5010441;28;20148;-79
2023/08/31 00:41:25;;;;;;;3.85;1.80;;;;;;;18.10;99.58;92627.44;5011175;28;20054;-79
2023/08/31 00:43:52;;;;;;;4.78;2.00;;;;;;;18.06;100.00;92623.03;5008872;28;20066;-79
2023/08/31 00:46:20;;;;;;;4.82;2.22;;;;;;;18.10;100.00;92618.91;5012218;28;20049;-79
2023/08/31 00:48:47;;;;;;;4.78;2.25;;;;;;;18.10;99.72;92609.25;5009181;28;20107;-79
2023/08/31 00:51:14;;;;;;;4.30;2.20;;;;;;;18.00;100.00;92606.69;5008815;28;20501;-78
2023/08/31 00:53:41;;;;;;;6.07;2.17;;;;;;;18.11;99.98;92623.03;5008564;28;20136;-79
2023/08/31 00:56:09;;;;;;;3.47;1.98;;;;;;;18.09;100.00;92623.31;5012256;28;20133;-79
2023/08/31 00:58:36;;;;;;;4.38;2.60;;;;;;;18.07;99.88;92619.41;5008202;28;20093;-79
2023/08/31 01:01:09;;;;;;;3.97;1.95;;;;;;;18.09;100.00;92630.34;5007992;28;20042;-79
2023/08/31 01:03:51;;;;;;;7.80;2.47;;;;;;;18.06;100.00;92616.06;5010559;28;20054;-79
2023/08/31 01:06:29;;;;;;;3.85;2.10;;;;;;;18.05;100.00;92624.84;5008065;28;20046;-79
2023/08/31 01:09:07;;;;;;;4.65;2.03;;;;;;;17.78;100.00;92587.13;5007691;28;20085;-79
2023/08/31 01:11:46;;;;;;;3.95;2.17;;;;;;;17.92;100.00;92623.66;5012370;28;20100;-80
2023/08/31 01:14:18;;;;;;;4.57;2.28;;;;;;;17.85;100.00;92625.75;5025279;28;20081;-79
2023/08/31 01:16:49;;;;;;;7.45;1.80;;;;;;;17.82;100.00;92619.28;5026710;28;20053;-80
2023/08/31 01:19:48;;;;;;;4.70;1.80;;;;;;;17.87;100.00;92640.03;5026460;28;20060;-79
2023/08/31 01:22:22;;;;;;;5.72;1.90;;;;;;;17.80;100.00;92639.56;5010814;28;20077;-80
2023/08/31 01:24:51;;;;;;;3.65;1.98;;;;;;;17.79;100.00;92639.81;5006950;28;20112;-80
2023/08/31 01:27:18;;;;;;;3.35;1.85;;;;;;;17.74;100.00;92638.03;5009415;28;20116;-80
2023/08/31 01:29:45;;;;;;;3.10;1.80;;;;;;;17.71;100.00;92639.34;5010136;28;20045;-80
2023/08/31 01:32:12;;;;;;;4.55;1.90;;;;;;;17.70;100.00;92631.81;5008339;28;20052;-80
2023/08/31 01:34:39;;;;;;;4.28;2.10;;;;;;;17.65;100.00;92635.22;5008394;28;20050;-79
2023/08/31 01:37:30;;;;;;;4.75;1.90;;;;;;;17.56;100.00;92627.22;5008290;28;20104;-79
2023/08/31 01:40:05;;;;;;;3.67;1.92;;;;;;;17.55;100.00;92617.09;5019419;28;20111;-81
2023/08/31 01:42:32;;;;;;;3.95;2.03;;;;;;;17.59;100.00;92631.13;5011034;28;20046;-81
2023/08/31 01:45:01;;;;;;;3.50;1.88;;;;;;;17.47;100.00;92619.22;5007340;28;20493;-80
2023/08/31 01:47:28;;;;;;;6.38;2.47;;;;;;;17.50;100.00;92629.06;5013231;28;20042;-80
2023/08/31 01:49:55;;;;;;;4.85;2.15;;;;;;;17.46;100.00;92632.47;5008120;28;20466;-79
2023/08/31 01:52:22;;;;;;;3.92;2.17;;;;;;;17.34;100.00;92625.75;5007675;28;20053;-79
2023/08/31 01:54:49;;;;;;;5.30;2.20;;;;;;;17.41;100.00;92641.03;5009584;28;20050;-78
2023/08/31 01:57:17;;;;;;;4.53;2.00;;;;;;;17.33;100.00;92644.19;5007362;28;20100;-78
2023/08/31 01:59:44;;;;;;;3.45;1.67;;;;;;;17.24;100.00;92641.38;5012787;28;20050;-77
2023/08/31 02:02:10;;;;;;;3.35;2.10;;;;;;;17.08;100.00;92622.47;5022777;28;20042;-77
2023/08/31 02:04:37;;;;;;;4.18;1.65;;;;;;;17.14;100.00;92649.19;5011088;28;20561;-79
2023/08/31 02:07:04;;;;;;;3.38;1.80;;;;;;;17.13;100.00;92647.63;5017211;28;20049;-79
2023/08/31 02:09:31;;;;;;;4.43;1.98;;;;;;;17.09;100.00;92645.56;5015968;28;20116;-79
2023/08/31 02:11:57;;;;;;;4.90;2.08;;;;;;;17.12;100.00;92648.69;5017859;28;20538;-79
2023/08/31 02:14:26;;;;;;;4.03;1.90;;;;;;;17.07;100.00;92652.03;5017028;28;20049;-79
2023/08/31 02:16:52;;;;;;;4.07;2.05;;;;;;;16.82;100.00;92617.31;5016839;28;20084;-79
2023/08/31 02:19:19;;;;;;;5.10;2.00;;;;;;;16.94;100.00;92650.78;5011651;28;20108;-79
2023/08/31 02:21:46;;;;;;;4.45;2.28;;;;;;;16.90;100.00;92658.28;5013061;28;20950;-79
2023/08/31 02:24:12;;;;;;;3.47;1.73;;;;;;;16.75;100.00;92655.72;5016723;28;20054;-79
2023/08/31 02:26:39;;;;;;;3.75;1.90;;;;;;;16.60;100.00;92644.31;5018275;28;20041;-79
2023/08/31 02:29:06;;;;;;;5.32;2.10;;;;;;;16.69;100.00;92647.94;5010350;28;20046;-79
2023/08/31 02:31:34;;;;;;;5.57;1.92;;;;;;;16.60;100.00;92643.53;5016239;28;20046;-77
2023/08/31 02:34:01;;;;;;;3.83;2.10;;;;;;;16.60;100.00;92651.31;5018858;28;20052;-78
2023/08/31 02:36:27;;;;;;;4.40;2.10;;;;;;;16.55;100.00;92645.13;5015619;28;20045;-78
2023/08/31 02:38:54;;;;;;;5.00;2.17;;;;;;;16.39;100.00;92635.78;5018418;28;20045;-78
2023/08/31 02:41:21;;;;;;;3.80;2.00;;;;;;;16.41;100.00;92644.06;5021308;28;20103;-78
2023/08/31 02:43:48;;;;;;;3.55;2.20;;;;;;;16.38;100.00;92647.97;5022047;28;20041;-78
2023/08/31 02:46:14;;;;;;;5.22;2.40;;;;;;;16.37;100.00;92648.22;5020665;28;20100;-81
2023/08/31 02:48:43;;;;;;;3.72;2.00;;;;;;;16.35;100.00;92656.25;5020479;28;20325;-81
2023/08/31 02:51:09;;;;;;;4.10;1.90;;;;;;;16.23;100.00;92638.38;5016481;28;20042;-80
2023/08/31 02:53:36;;;;;;;3.75;2.20;;;;;;;16.36;100.00;92665.59;5022088;28;20088;-80
2023/08/31 02:56:03;;;;;;;3.53;1.85;;;;;;;16.29;100.00;92668.44;5020596;28;20111;-78
2023/08/31 02:58:31;;;;;;;4.60;1.95;;;;;;;16.24;100.00;92673.59;5018089;28;20046;-78
2023/08/31 03:01:07;;;;;;;4.07;2.20;;;;;;;16.21;100.00;92674.13;5020048;28;20065;-78
2023/08/31 03:03:34;;;;;;;;;;;;;;;16.19;100.00;92678.03;5012858;28;20049;-78
2023/08/31 03:06:03;;;;;;;5.35;2.42;;;;;;;16.09;100.00;92676.97;5022651;28;19921;-78
2023/08/31 03:08:30;;;;;;;4.90;2.33;;;;;;;16.04;100.00;92679.53;5021072;28;20081;-78
2023/08/31 03:10:58;;;;;;;4.40;2.42;;;;;;;16.04;100.00;92682.13;5020328;28;20045;-78
2023/08/31 03:13:25;;;;;;;6.38;2.45;;;;;;;15.99;100.00;92677.72;5019972;28;21053;-78
2023/08/31 03:15:52;;;;;;;5.13;2.58;;;;;;;15.96;100.00;92680.81;5022455;28;20118;-78
2023/08/31 03:18:19;;;;;;;3.47;2.22;;;;;;;15.95;100.00;92678.47;5021394;28;20163;-78
2023/08/31 03:20:45;;;;;;;3.30;1.80;;;;;;;15.93;100.00;92673.56;5023418;28;20984;-78
2023/08/31 03:23:13;;;;;;;4.85;2.03;;;;;;;15.84;100.00;92673.25;5018204;28;20108;-78
2023/08/31 03:25:40;;;;;;;3.75;2.13;;;;;;;15.90;100.00;92668.88;5013031;28;20045;-78
2023/08/31 03:28:07;;;;;;;4.70;2.20;;;;;;;15.86;100.00;92673.00;5010913;28;20054;-79
2023/08/31 03:30:34;;;;;;;3.47;2.00;;;;;;;15.86;100.00;92681.56;5010885;28;20410;-78
2023/08/31 03:33:01;;;;;;;4.85;2.33;;;;;;;15.86;100.00;92683.34;5010946;28;20830;-78
2023/08/31 03:35:28;;;;;;;5.75;2.15;;;;;;;15.82;100.00;92685.69;5011787;28;20048;-78
2023/08/31 03:37:55;;;;;;;6.43;2.00;;;;;;;15.78;100.00;92679.44;5010447;28;20054;-77
2023/08/31 03:40:23;;;;;;;6.50;2.28;;;;;;;15.68;100.00;92675.03;5010431;28;20082;-77
2023/08/31 03:42:50;;;;;;;5.95;2.00;;;;;;;15.68;100.00;92682.00;5010465;28;20058;-77
2023/08/31 03:45:18;;;;;;;5.05;2.33;;;;;;;15.61;100.00;92683.00;5012822;28;20091;-77
2023/08/31 03:47:45;;;;;;;4.25;2.50;;;;;;;15.63;100.00;92700.88;5010186;28;20081;-77
2023/08/31 03:50:11;;;;;;;4.47;1.90;;;;;;;15.57;100.00;92699.31;5012413;28;20108;-77
2023/08/31 03:52:38;;;;;;;6.53;2.13;;;;;;;15.55;100.00;92701.38;5009896;28;20435;-77
2023/08/31 03:55:05;;;;;;;4.97;2.13;;;;;;;15.43;100.00;92692.03;5012206;28;20057;-77
2023/08/31 03:57:33;;;;;;;5.45;3.13;;;;;;;15.55;100.00;92714.31;5012547;28;20455;-77
2023/08/31 04:00:00;;;;;;;7.63;2.40;;;;;;;15.50;100.00;92713.28;5010552;28;20496;-77
2023/08/31 04:02:27;;;;;;;6.20;2.70;;;;;;;15.54;100.00;92723.91;5009963;28;20104;-76
2023/08/31 04:04:54;;;;;;;7.45;3.30;;;;;;;15.53;100.00;92726.72;5009799;28;20095;-76
2023/08/31 04:07:20;;;;;;;4.75;2.67;;;;;;;15.48;100.00;92728.28;5024040;28;20123;-76
2023/08/31 04:09:47;;;;;;;4.45;2.67;;;;;;;15.40;100.00;92708.03;5011307;28;20050;-76
2023/08/31 04:12:14;;;;;;;8.32;2.80;;;;;;;15.57;100.00;92722.59;5017579;28;20041;-76
2023/08/31 04:14:42;;;;;;;5.53;2.50;;;;;;;15.60;100.00;92733.25;5010111;28;20053;-76
2023/08/31 04:17:09;;;;;;;9.52;2.97;;;;;;;15.61;100.00;92729.59;5015535;28;20101;-76
2023/08/31 04:19:36;;;;;;;5.72;2.13;;;;;;;15.56;100.00;92721.81;5013699;28;20705;-76
2023/08/31 04:22:04;;;;;;;5.65;2.42;;;;;;;15.52;100.00;92731.13;5009269;28;20042;-76
2023/08/31 04:24:31;;;;;;;3.88;2.38;;;;;;;15.46;100.00;92726.97;5015586;28;20758;-76
2023/08/31 04:26:57;;;;;;;5.70;2.45;;;;;;;15.48;100.00;92730.88;5010296;28;20049;-76
2023/08/31 04:29:24;;;;;;;4.63;2.80;;;;;;;15.48;100.00;92730.09;5011705;28;20050;-76
2023/08/31 04:31:52;;;;;;;5.88;2.83;;;;;;;15.45;100.00;92725.38;5012548;28;20427;-76
2023/08/31 04:34:19;;;;;;;5.22;2.78;;;;;;;15.49;100.00;92729.03;5015222;28;20049;-77
2023/08/31 04:36:46;;;;;;;7.30;2.20;;;;;;;15.37;100.00;92711.16;5013386;28;20050;-76
2023/08/31 04:39:13;;;;;;;5.93;2.45;;;;;;;15.59;100.00;92736.88;5009499;28;20057;-76
2023/08/31 04:41:40;;;;;;;5.63;2.63;;;;;;;15.64;100.00;92741.28;5009229;28;20096;-77
2023/08/31 04:44:06;;;;;;;3.83;2.53;;;;;;;15.66;100.00;92744.41;5010650;28;20130;-77
2023/08/31 04:46:33;;;;;;;5.97;2.53;;;;;;;15.74;100.00;92758.69;5010427;28;20049;-77
2023/08/31 04:49:03;;;;;;;6.70;3.05;;;;;;;15.79;100.00;92748.34;5009741;28;20052;-76
2023/08/31 04:51:32;;;;;;;7.60;2.88;;;;;;;15.82;100.00;92752.22;5008738;28;20052;-77
2023/08/31 04:53:58;;;;;;;8.82;3.15;;;;;;;15.89;100.00;92750.19;5027368;28;20054;-76
2023/08/31 04:56:25;;;;;;;6.85;2.58;;;;;;;15.92;100.00;92754.09;5022852;28;20057;-76
2023/08/31 04:58:52;;;;;;;8.65;3.05;;;;;;;16.01;100.00;92758.53;5018988;28;20049;-76
2023/08/31 05:01:19;;;;;;;4.10;2.42;;;;;;;16.11;100.00;92752.59;5026522;28;20050;-76
2023/08/31 05:03:46;;;;;;;13.77;2.78;;;;;;;16.15;100.00;92737.31;5023150;28;20798;-76
2023/08/31 05:06:14;;;;;;;8.10;3.28;;;;;;;16.26;100.00;92751.84;5008825;28;20541;-76
2023/08/31 05:08:41;;;;;;;6.72;2.38;;;;;;;16.33;100.00;92751.63;5008957;28;20404;-76
2023/08/31 05:11:08;;;;;;;5.30;2.40;;;;;;;16.39;100.00;92753.19;5010474;28;20499;-76
2023/08/31 05:13:35;;;;;;;7.70;2.78;;;;;;;16.38;100.00;92749.03;5015415;28;20511;-76
2023/08/31 05:16:02;;;;;;;6.38;2.83;;;;;;;16.56;100.00;92762.53;5008835;28;20105;-76
2023/08/31 05:18:29;;;;;;;5.22;2.40;;;;;;;16.60;100.00;92753.22;5011107;28;20050;-76
2023/08/31 05:20:56;;;;;;;10.38;2.72;;;;;;;16.67;100.00;92763.34;5009425;28;20561;-76
2023/08/31 05:23:24;;;;;;;5.30;2.50;;;;;;;16.74;100.00;92755.28;5008744;28;20160;-76
2023/08/31 05:25:51;;;;;;;5.93;2.50;;;;;;;16.82;100.00;92752.97;5010351;28;20064;-76
2023/08/31 05:28:17;;;;;;;8.02;3.10;;;;;;;16.90;100.00;92754.25;5014779;28;20946;-77
2023/08/31 05:30:50;;;;;;;10.55;4.50;;;;;;;16.91;100.00;92747.25;5020961;28;20049;-77
2023/08/31 05:33:16;;;;;;;9.07;3.33;;;;;;;16.86;100.00;92760.22;5024181;28;20100;-76
2023/08/31 05:35:43;;;;;;;7.80;2.70;;;;;;;16.55;100.00;92741.03;5019985;28;20507;-76
2023/08/31 05:38:10;;;;;;;6.35;3.15;;;;;;;16.68;100.00;92763.06;5010382;28;20053;-76
2023/08/31 05:40:38;;;;;;;5.32;2.60;;;;;;;16.44;100.00;92755.03;5008534;28;20045;-76
2023/08/31 05:43:05;;;;;;;6.60;3.00;;;;;;;16.35;100.00;92757.34;5022690;28;20483;-76
2023/08/31 05:45:33;;;;;;;6.93;3.58;;;;;;;16.23;100.00;92736.06;5023360;28;20045;-76
2023/08/31 05:48:00;;;;;;;6.75;3.22;;;;;;;16.44;100.00;92752.44;5007272;28;20078;-76
2023/08/31 05:50:27;;;;;;;9.75;4.15;;;;;;;16.42;100.00;92726.75;5025522;28;20137;-76
2023/08/31 05:52:54;;;;;;;11.38;3.97;;;;;;;16.74;100.00;92748.31;5025855;28;20880;-76
2023/08/31 05:55:21;;;;;;;11.43;4.05;;;;;;;16.87;100.00;92741.03;5023319;28;20062;-76
2023/08/31 05:57:49;;;;;;;9.10;3.38;;;;;;;17.21;100.00;92771.66;5016050;28;20112;-76
2023/08/31 06:00:17;;;;;;;15.93;3.88;;;;;;;17.41;100.00;92767.47;5008160;28;20092;-76
2023/08/31 06:02:44;;;;;;;9.75;3.08;;;;;;;17.44;100.00;92749.56;5007300;28;20133;-77
2023/08/31 06:05:12;;;;;;;11.52;3.70;;;;;;;17.65;100.00;92759.91;5008247;28;20061;-76
2023/08/31 06:07:39;;;;;;;10.13;3.88;;;;;;;17.84;100.00;92778.28;5008136;28;20096;-76
2023/08/31 06:10:07;;;;;;;13.27;3.60;;;;;;;18.01;100.00;92771.97;5009673;28;20904;-76
2023/08/31 06:12:34;;;;;;;12.80;3.63;;;;;;;18.30;100.00;92785.09;5010989;28;20072;-76
2023/08/31 06:15:02;;;;;;;9.35;3.05;;;;;;;18.50;100.00;92787.88;5025975;28;20089;-76
2023/08/31 06:17:29;;;;;;;13.10;3.30;;;;;;;18.66;99.43;92783.38;5008853;28;20091;-76
2023/08/31 06:19:56;;;;;;;11.57;3.13;;;;;;;18.83;96.91;92788.97;5007120;28;20072;-76
2023/08/31 06:22:24;;;;;;;8.93;3.60;;;;;;;18.89;96.58;92791.53;5011274;28;20092;-76
2023/08/31 06:24:51;;;;;;;13.10;3.65;;;;;;;19.10;94.65;92802.59;5014763;28;20077;-76
2023/08/31 06:27:18;;;;;;;9.13;3.50;;;;;;;18.95;94.55;92775.63;5008131;28;20061;-76
2023/08/31 06:29:45;;;;;;;10.80;4.22;;;;;;;19.32;94.34;92804.75;5007729;28;20042;-76
2023/08/31 06:32:13;;;;;;;12.60;3.13;;;;;;;19.54;93.36;92810.56;5015249;28;20050;-77
2023/08/31 06:34:39;;;;;;;8.63;3.30;;;;;;;19.55;91.88;92817.31;5008403;28;20189;-77
2023/08/31 06:37:06;;;;;;;9.68;3.63;;;;;;;19.39;90.68;92790.66;5008804;28;20054;-78
2023/08/31 06:39:33;;;;;;;9.88;2.70;;;;;;;19.66;91.96;92810.94;5008412;28;20050;-77
2023/08/31 06:42:00;;;;;;;9.60;3.38;;;;;;;19.85;88.88;92812.84;5013205;28;20897;-77
2023/08/31 06:44:26;;;;;;;6.72;2.55;;;;;;;20.05;87.24;92827.53;5007296;28;20503;-76
2023/08/31 06:46:53;;;;;;;7.28;2.65;;;;;;;19.99;88.00;92815.56;5014266;28;20135;-76
2023/08/31 06:49:22;;;;;;;7.50;2.78;;;;;;;20.24;86.93;92811.13;5007498;28;20049;-76
2023/08/31 06:51:49;;;;;;;5.45;2.50;;;;;;;20.41;84.71;92819.25;5013656;28;20050;-76
2023/08/31 06:54:16;;;;;;;11.02;2.83;;;;;;;20.78;86.58;92830.00;5008393;28;20108;-76
2023/08/31 06:56:43;;;;;;;8.02;2.70;;;;;;;21.03;82.95;92825.50;5008116;28;20050;-76
2023/08/31 06:59:09;;;;;;;7.20;2.33;;;;;;;21.15;81.02;92796.31;5010342;28;20846;-76
2023/08/31 07:01:36;;;;;;;6.38;2.33;;;;;;;21.47;80.46;92801.81;5007829;28;20050;-76
2023/08/31 07:04:04;;;;;;;4.70;2.00;;;;;;;21.90;75.57;92834.84;5008142;28;20053;-76
2023/08/31 07:06:34;;;;;;;9.23;2.42;;;;;;;22.16;75.43;92835.13;5007828;28;20582;-76
2023/08/31 07:09:01;;;;;;;9.90;2.92;;;;;;;22.33;74.44;92836.38;5011950;28;20056;-76
2023/08/31 07:11:28;;;;;;;6.75;2.78;;;;;;;22.31;72.08;92842.97;5009467;28;20112;-76
2023/08/31 07:13:54;;;;;;;7.05;2.67;;;;;;;22.12;72.26;92834.16;5007720;28;20459;-76
2023/08/31 07:16:21;;;;;;;7.65;2.50;;;;;;;22.01;72.40;92841.41;5007586;28;20049;-76
2023/08/31 07:18:48;;;;;;;6.57;2.65;;;;;;;22.24;71.76;92841.50;5009077;28;20050;-76
2023/08/31 07:21:14;;;;;;;6.53;2.45;;;;;;;22.38;69.85;92848.56;5008928;28;20085;-76
2023/08/31 07:23:42;;;;;;;10.57;2.55;;;;;;;22.74;71.40;92847.09;5011249;28;20100;-77
2023/08/31 07:26:09;;;;;;;8.40;2.75;;;;;;;22.93;68.93;92846.94;5010681;28;20575;-76
2023/08/31 07:28:36;;;;;;;6.07;2.55;;;;;;;22.74;69.22;92841.84;5015054;28;20104;-77
2023/08/31 07:31:04;;;;;;;8.02;2.78;;;;;;;23.07;67.93;92841.66;5011088;28;20123;-77
2023/08/31 07:33:32;;;;;;;5.68;2.08;;;;;;;23.13;64.99;92839.72;5010457;28;20096;-76
2023/08/31 07:35:59;;;;;;;5.38;2.00;;;;;;;23.22;65.32;92837.91;5020426;28;20061;-77
2023/08/31 07:38:26;;;;;;;4.35;2.35;;;;;;;23.43;64.52;92861.03;5010815;28;20057;-76
2023/08/31 07:40:54;;;;;;;3.47;1.40;;;;;;;23.49;65.35;92863.25;5016151;28;20077;-77
2023/08/31 07:43:21;;;;;;;5.30;1.40;;;;;;;23.07;66.75;92847.69;5011801;28;20843;-76
2023/08/31 07:45:48;;;;;;;5.13;2.17;;;;;;;23.18;65.39;92852.66;5019688;28;20144;-76
2023/08/31 07:48:14;;;;;;;4.70;2.00;;;;;;;23.45;66.69;92866.75;5020811;28;20061;-76
2023/08/31 07:50:46;;;;;;;6.35;1.50;;;;;;;23.60;64.33;92836.75;5011161;28;20499;-78
2023/08/31 07:53:13;;;;;;;7.13;1.88;;;;;;;24.01;64.58;92846.22;5010437;28;20080;-76
2023/08/31 07:55:40;;;;;;;10.77;1.75;;;;;;;24.51;63.72;92860.13;5012864;28;20454;-77
2023/08/31 07:58:08;;;;;;;6.70;2.10;;;;;;;24.86;62.22;92864.72;5011206;28;20450;-77
2023/08/31 08:00:35;;;;;;;5.55;1.60;;;;;;;25.07;58.42;92856.19;5011170;28;20552;-76
2023/08/31 08:03:01;;;;;;;10.45;1.63;;;;;;;25.34;58.93;92854.31;5016460;28;20127;-77
2023/08/31 08:05:28;;;;;;;19.90;2.55;;;;;;;25.64;56.19;92864.22;5010193;28;20089;-76
2023/08/31 08:07:55;;;;;;;10.05;2.08;;;;;;;25.92;56.20;92851.44;5012055;28;20132;-77
2023/08/31 08:10:22;;;;;;;9.40;2.10;;;;;;;26.23;55.72;92863.56;5011440;28;20042;-77
2023/08/31 08:12:48;;;;;;;4.00;1.92;;;;;;;26.33;52.01;92862.44;5009945;28;20123;-76
2023/08/31 08:15:16;;;;;;;5.97;2.33;;;;;;;26.06;50.11;92864.38;5012704;28;20125;-77
2023/08/31 08:17:43;;;;;;;11.15;2.83;;;;;;;26.31;51.40;92871.75;5010273;28;20492;-77
2023/08/31 08:20:11;;;;;;;8.45;2.50;;;;;;;26.49;51.00;92867.16;5011328;28;20131;-76
2023/08/31 08:22:38;;;;;;;5.35;2.33;;;;;;;26.57;48.40;92868.22;5012345;28;20124;-76
2023/08/31 08:25:05;;;;;;;10.63;2.70;;;;;;;26.53;46.07;92868.84;5012541;28;20053;-76
2023/08/31 08:27:32;;;;;;;6.47;3.25;;;;;;;26.62;45.79;92868.03;5010062;28;20077;-76
2023/08/31 08:29:59;;;;;;;6.70;3.30;;;;;;;26.59;45.23;92861.53;5012064;28;20077;-77
2023/08/31 08:32:27;;;;;;;4.30;2.45;;;;;;;26.76;45.65;92873.06;5010822;28;20115;-76
2023/08/31 08:34:54;;;;;;;6.57;2.33;;;;;;;26.88;46.12;92880.28;5015743;28;20933;-77
2023/08/31 08:37:21;;;;;;;7.43;3.17;;;;;;;26.73;43.15;92877.09;5010266;28;20053;-77
2023/08/31 08:39:49;;;;;;;5.75;2.65;;;;;;;26.47;44.81;92879.88;5013981;28;20103;-77
2023/08/31 08:42:18;;;;;;;7.55;2.58;;;;;;;25.98;43.81;92881.78;5014333;28;20053;-77
2023/08/31 08:44:45;;;;;;;6.95;3.05;;;;;;;26.02;44.37;92885.28;5014617;28;20057;-77
2023/08/31 08:47:13;;;;;;;4.85;2.10;;;;;;;26.04;45.75;92861.31;5019098;28;20050;-77
2023/08/31 08:49:41;;;;;;;5.30;2.42;;;;;;;25.98;46.77;92850.19;5013022;28;20054;-77
2023/08/31 08:52:08;;;;;;;11.48;4.03;;;;;;;26.25;46.07;92879.06;5012441;28;20054;-76
2023/08/31 08:54:36;;;;;;;6.07;2.63;;;;;;;26.11;47.92;92873.97;5013882;28;20054;-77
2023/08/31 08:57:04;;;;;;;5.78;2.50;;;;;;;26.31;47.11;92875.16;5012730;28;20046;-77
2023/08/31 08:59:31;;;;;;;5.95;2.35;;;;;;;26.49;46.29;92870.59;5011734;28;20125;-76
2023/08/31 09:01:58;;;;;;;4.97;2.50;;;;;;;26.51;46.16;92875.50;5017196;28;20139;-76
2023/08/31 09:04:25;;;;;;;4.57;2.95;;;;;;;26.50;44.46;92872.13;5014079;28;20045;-77
2023/08/31 09:06:53;;;;;;;7.28;3.00;;;;;;;26.83;44.13;92870.69;5009893;28;20096;-76
2023/08/31 09:09:21;;;;;;;10.75;3.45;;;;;;;26.99;46.07;92872.78;5009451;28;20049;-77
2023/08/31 09:11:47;;;;;;;5.68;2.20;;;;;;;26.95;43.50;92873.41;5008885;28;20153;-76
2023/08/31 09:14:15;;;;;;;4.95;2.42;;;;;;;26.91;41.04;92866.44;5009835;28;20057;-78
2023/08/31 09:16:45;;;;;;;5.88;2.83;;;;;;;27.16;43.36;92867.38;5010766;28;21147;-76
2023/08/31 09:19:19;;;;;;;8.85;3.60;;;;;;;27.36;42.86;92878.22;5013789;28;20500;-78
2023/08/31 09:21:50;;;;;;;6.47;2.97;;;;;;;27.47;40.80;92879.38;5015055;28;20437;-78
2023/08/31 09:24:19;;;;;;;7.35;2.63;;;;;;;27.30;40.85;92861.06;5008983;28;20049;-76
2023/08/31 09:26:47;;;;;;;6.10;2.95;;;;;;;27.44;41.27;92871.34;5010571;28;20053;-76
2023/08/31 09:29:14;;;;;;;6.00;2.60;;;;;;;27.04;40.28;92873.34;5009742;28;20165;-76
2023/08/31 09:31:44;;;;;;;5.85;2.40;;;;;;;27.19;42.27;92852.78;5013256;28;20130;-76
2023/08/31 09:34:11;;;;;;;4.93;2.67;;;;;;;27.26;39.72;92878.63;5012309;28;20053;-78
2023/08/31 09:36:39;;;;;;;3.90;2.20;;;;;;;27.04;38.85;92868.06;5010929;28;20050;-76
2023/08/31 09:39:08;;;;;;;6.55;2.83;;;;;;;27.08;41.04;92874.25;5012344;28;21175;-78
2023/08/31 09:41:52;;;;;;;4.97;2.75;;;;;;;27.38;39.67;92870.75;5009147;28;20055;-76
2023/08/31 09:44:20;;;;;;;6.38;2.67;;;;;;;27.03;41.15;92848.06;5008723;28;20061;-76
2023/08/31 09:46:47;;;;;;;5.30;3.22;;;;;;;27.50;40.32;92859.47;5009187;28;20107;-79
2023/08/31 09:49:16;;;;;;;6.70;2.90;;;;;;;27.91;38.38;92866.84;5007802;28;20502;-76
2023/08/31 09:51:46;;;;;;;5.55;2.97;;;;;;;28.35;38.08;92861.06;5011038;28;20108;-76
2023/08/31 09:54:15;;;;;;;4.43;2.05;;;;;;;28.12;38.43;92854.34;5008726;28;20064;-77
2023/08/31 09:56:44;;;;;;;5.88;2.50;;;;;;;27.87;38.76;92859.59;5009287;28;20408;-76
2023/08/31 09:59:12;;;;;;;5.75;2.08;;;;;;;27.70;39.20;92865.06;5011717;28;20130;-76
2023/08/31 10:01:39;;;;;;;5.68;2.90;;;;;;;27.68;40.43;92861.97;5010904;28;20057;-76
2023/08/31 10:04:08;;;;;;;5.47;2.65;;;;;;;27.85;39.93;92859.16;5010468;28;20049;-77
2023/08/31 10:06:36;;;;;;;4.90;2.13;;;;;;;27.97;37.07;92868.19;5013027;28;20053;-77
2023/08/31 10:09:04;;;;;;;5.28;2.60;;;;;;;27.99;37.68;92853.56;5021575;28;20041;-77
2023/08/31 10:11:32;;;;;;;4.78;2.13;;;;;;;27.52;37.34;92772.88;5022383;28;20049;-78
2023/08/31 10:14:00;;;;;;;4.38;2.30;;;;;;;27.83;37.54;92857.94;5014948;28;20565;-75
2023/08/31 10:16:28;;;;;;;5.85;2.33;;;;;;;28.10;37.16;92859.16;5011262;28;20053;-76
2023/08/31 10:18:57;;;;;;;5.03;2.17;;;;;;;28.14;38.55;92860.06;5008007;28;20133;-76
2023/08/31 10:21:24;;;;;;;10.20;2.05;;;;;;;28.24;36.46;92866.78;5008308;28;20673;-76
2023/08/31 10:23:52;;;;;;;3.70;1.85;;;;;;;27.93;36.04;92870.72;5007146;28;20053;-78
2023/08/31 10:26:26;;;;;;;3.88;1.63;;;;;;;27.88;37.56;92871.72;5010509;28;20089;-77
2023/08/31 10:28:53;;;;;;;5.78;2.50;;;;;;;27.72;40.06;92870.78;5008266;28;20045;-76
2023/08/31 10:31:22;;;;;;;9.07;3.72;;;;;;;27.43;39.15;92870.56;5023447;28;20049;-78
2023/08/31 10:33:58;;;;;;;5.25;2.25;;;;;;;27.13;40.82;92878.56;5008987;28;20133;-76
2023/08/31 10:36:37;;;;;;;4.68;1.98;;;;;;;26.95;42.21;92862.88;5008315;28;20057;-78
2023/08/31 10:39:08;;;;;;;4.28;1.70;;;;;;;26.65;43.41;92868.16;5007971;28;20049;-77
2023/08/31 10:41:36;;;;;;;4.47;1.85;;;;;;;26.71;43.29;92873.25;5008590;28;20442;-76
2023/08/31 10:44:03;;;;;;;5.80;2.30;;;;;;;26.46;43.68;92878.31;5008516;28;20108;-75
2023/08/31 10:46:33;;;;;;;5.72;1.88;;;;;;;26.59;42.10;92887.88;5017451;28;20103;-76
2023/08/31 10:49:01;;;;;;;5.70;2.13;;;;;;;26.30;41.24;92886.78;5015635;28;20053;-75
2023/08/31 10:51:30;;;;;;;6.00;1.88;;;;;;;26.31;41.48;92879.63;5007365;28;20137;-76
2023/08/31 10:54:09;;;;;;;5.78;2.35;;;;;;;26.02;42.61;92879.28;5007157;28;20426;-75
2023/08/31 10:56:52;;;;;;;4.75;1.90;;;;;;;25.94;42.52;92875.59;5014316;28;20081;-75
2023/08/31 10:59:20;;;;;;;4.78;1.83;;;;;;;25.49;43.80;92876.72;5012676;28;20124;-77
2023/08/31 11:01:56;;;;;;;4.25;2.00;;;;;;;25.49;44.24;92882.78;5011337;28;20065;-76
2023/08/31 11:04:24;;;;;;;2.40;1.02;;;;;;;25.37;44.00;92884.47;5010955;28;20092;-75
2023/08/31 11:07:06;;;;;;;4.65;1.60;;;;;;;25.04;45.57;92878.59;5009819;28;20085;-76
2023/08/31 11:09:33;;;;;;;2.50;1.27;;;;;;;25.22;45.22;92883.84;5010183;28;20124;-76
2023/08/31 11:12:00;;;;;;;4.60;1.70;;;;;;;25.08;46.22;92871.66;5010091;28;20046;-75
2023/08/31 11:14:26;;;;;;;4.00;1.98;;;;;;;24.77;45.72;92863.88;5010824;28;20389;-76
2023/08/31 11:16:55;;;;;;;4.13;1.70;;;;;;;24.93;46.75;92888.66;5010928;28;20091;-75
2023/08/31 11:19:21;;;;;;;4.50;1.80;;;;;;;24.91;46.73;92876.91;5010514;28;20045;-75
2023/08/31 11:21:48;;;;;;;4.10;1.60;;;;;;;24.95;47.00;92890.97;5013258;28;20053;-75
2023/08/31 11:24:18;;;;;;;5.22;1.85;;;;;;;25.26;46.74;92876.16;5010465;28;20100;-76
2023/08/31 11:26:45;;;;;;;5.10;1.90;;;;;;;25.65;45.10;92876.28;5014486;28;20053;-75
2023/08/31 11:29:11;;;;;;;5.47;1.58;;;;;;;25.89;46.23;92876.50;5011811;28;20049;-75
2023/08/31 11:31:41;;;;;;;5.90;1.80;;;;;;;26.06;44.02;92839.94;5012036;28;20045;-76
2023/08/31 11:34:13;;;;;;;5.47;2.20;;;;;;;26.57;43.20;92884.00;5009354;28;20454;-76